Time;durP1;ratioP1;P1;durP2;ratioP2;P2;SDS_P1;SDS_P2;PMS_P1;PMS_P2;Temp;Humidity;BMP_temperature;BMP_pressure;BME280_temperature;BME280_humidity;BME280_pressure;Samples;Min_cycle;Max_cycle;Signal;HPM_P1;HPM_P2
2022/04/15 00:00:40;;;;;;;6.03;4.78;;;;;;;11.44;87.19;96153.19;6368361;22;20493;-59
2022/04/15 00:03:06;;;;;;;6.55;3.88;;;;;;;11.41;87.13;96156.94;6368312;22;20380;-59
2022/04/15 00:05:36;;;;;;;5.22;3.70;;;;;;;11.40;87.56;96157.06;6368148;22;20480;-59
2022/04/15 00:08:09;;;;;;;6.00;3.97;;;;;;;11.33;87.42;96151.50;6368160;22;19999;-59
2022/04/15 00:10:35;;;;;;;6.18;3.97;;;;;;;11.36;87.05;96156.50;6368332;22;20014;-59
2022/04/15 00:13:03;;;;;;;5.97;4.10;;;;;;;11.33;88.04;96154.13;6339653;22;20014;-59
2022/04/15 00:15:29;;;;;;;5.22;3.33;;;;;;;11.30;88.47;96154.41;6368021;22;20401;-59
2022/04/15 00:17:54;;;;;;;8.23;3.58;;;;;;;11.29;87.76;96156.22;6368289;22;20034;-59
2022/04/15 00:20:20;;;;;;;6.00;4.07;;;;;;;11.25;87.79;96152.16;6367909;22;20338;-58
2022/04/15 00:22:46;;;;;;;4.28;3.88;;;;;;;11.17;88.87;96155.50;6368189;22;20034;-59
2022/04/15 00:25:12;;;;;;;5.85;4.07;;;;;;;11.14;89.13;96153.09;6367916;22;20021;-59
2022/04/15 00:27:38;;;;;;;4.03;3.60;;;;;;;11.08;89.01;96148.38;6368005;22;20006;-59
2022/04/15 00:30:06;;;;;;;6.25;3.95;;;;;;;11.10;88.78;96146.44;6368377;22;20350;-59
2022/04/15 00:32:32;;;;;;;4.30;3.90;;;;;;;11.10;89.08;96142.97;6367387;22;20081;-59
2022/04/15 00:34:57;;;;;;;5.55;3.50;;;;;;;11.08;89.50;96150.19;6367944;22;20002;-59
2022/04/15 00:37:23;;;;;;;6.35;4.03;;;;;;;11.04;89.43;96139.91;6368089;22;20034;-59
2022/04/15 00:39:49;;;;;;;5.85;4.10;;;;;;;11.02;89.30;96141.00;6368031;22;20396;-59
2022/04/15 00:42:14;;;;;;;5.97;3.88;;;;;;;10.97;89.69;96140.59;6367843;22;20438;-59
2022/04/15 00:44:40;;;;;;;6.22;3.92;;;;;;;10.95;89.37;96139.91;6367750;22;20006;-59
2022/04/15 00:47:37;;;;;;;6.95;3.65;;;;;;;10.96;88.94;96145.00;6367960;22;20002;-59
2022/04/15 00:50:04;;;;;;;6.82;4.10;;;;;;;10.92;88.73;96137.50;6353162;22;20014;-58
2022/04/15 00:52:34;;;;;;;4.55;4.25;;;;;;;10.91;89.05;96146.38;6367597;22;19999;-59
2022/04/15 00:55:03;;;;;;;4.45;4.05;;;;;;;10.88;89.21;96143.03;6368024;22;20022;-58
2022/04/15 00:57:31;;;;;;;8.20;3.80;;;;;;;10.84;89.65;96146.91;6367400;22;20346;-58
2022/04/15 01:00:00;;;;;;;4.07;3.67;;;;;;;10.81;88.97;96139.28;6367688;22;20013;-58
2022/04/15 01:02:26;;;;;;;5.50;3.75;;;;;;;10.81;89.12;96143.69;6367338;22;20006;-58
2022/04/15 01:04:56;;;;;;;6.80;3.90;;;;;;;10.78;89.58;96138.69;6367525;22;20407;-58
2022/04/15 01:07:32;;;;;;;3.75;3.45;;;;;;;10.77;89.38;96137.03;6367263;22;20002;-58
2022/04/15 01:09:59;;;;;;;4.30;3.90;;;;;;;10.72;89.32;96142.69;6367648;22;20005;-58
2022/04/15 01:12:28;;;;;;;4.22;3.92;;;;;;;10.70;89.44;96140.19;6367591;22;20006;-58
2022/04/15 01:14:59;;;;;;;8.38;4.22;;;;;;;10.68;89.25;96134.22;6367679;22;20002;-59
2022/04/15 01:17:24;;;;;;;4.32;3.92;;;;;;;10.64;90.48;96137.25;6367463;22;20055;-58
2022/04/15 01:19:50;;;;;;;4.63;4.20;;;;;;;10.62;90.87;96139.19;6367468;22;20033;-59
2022/04/15 01:22:17;;;;;;;6.60;4.15;;;;;;;10.56;91.51;96140.53;6367224;22;19998;-58
2022/04/15 01:24:43;;;;;;;3.53;3.25;;;;;;;10.55;91.06;96144.97;6366546;22;20013;-58
2022/04/15 01:27:08;;;;;;;4.30;3.67;;;;;;;10.52;90.85;96145.25;6367509;22;20006;-59
2022/04/15 01:29:38;;;;;;;4.45;4.05;;;;;;;10.52;90.46;96137.34;6367190;22;20457;-58
2022/04/15 01:32:05;;;;;;;3.85;3.38;;;;;;;10.47;90.87;96142.16;6367330;22;20443;-58
2022/04/15 01:34:31;;;;;;;4.70;3.67;;;;;;;10.45;90.54;96147.56;6367406;22;20438;-59
2022/04/15 01:36:59;;;;;;;6.13;3.95;;;;;;;10.42;90.84;96142.56;6367409;22;20043;-59
2022/04/15 01:39:26;;;;;;;5.65;3.70;;;;;;;10.38;91.37;96148.16;6367564;22;19999;-59
2022/04/15 01:41:51;;;;;;;7.90;4.70;;;;;;;10.36;91.53;96150.09;6367151;22;20477;-59
2022/04/15 01:44:17;;;;;;;5.22;4.25;;;;;;;10.38;91.26;96153.44;6366990;22;20003;-59
2022/04/15 01:46:43;;;;;;;4.43;3.67;;;;;;;10.38;91.17;96151.63;6367190;22;20006;-59
2022/04/15 01:49:09;;;;;;;4.82;4.32;;;;;;;10.39;90.08;96150.69;6366989;22;19994;-58
2022/04/15 01:51:35;;;;;;;5.53;4.30;;;;;;;10.36;90.82;96150.91;6367276;22;20055;-59
2022/04/15 01:54:01;;;;;;;4.93;4.15;;;;;;;10.34;91.41;96149.41;6367039;22;20427;-59
2022/04/15 01:56:26;;;;;;;7.75;4.05;;;;;;;10.33;91.45;96156.44;6367502;22;19998;-59
2022/04/15 01:58:52;;;;;;;8.85;4.15;;;;;;;10.31;91.35;96161.84;6367063;22;19999;-59
2022/04/15 02:01:17;;;;;;;4.35;3.95;;;;;;;10.33;91.31;96151.19;6367149;22;20013;-59
2022/04/15 02:03:42;;;;;;;5.65;3.72;;;;;;;10.36;91.05;96155.38;6366554;22;20009;-59
2022/04/15 02:06:08;;;;;;;7.68;4.32;;;;;;;10.33;91.51;96145.91;6367052;22;20437;-59
2022/04/15 02:08:33;;;;;;;4.68;4.22;;;;;;;10.33;91.64;96148.56;6366845;22;20006;-59
2022/04/15 02:10:58;;;;;;;6.53;5.20;;;;;;;10.32;92.44;96155.63;6367064;22;20034;-59
2022/04/15 02:13:24;;;;;;;5.78;4.75;;;;;;;10.38;92.45;96150.81;6367051;22;20010;-59
2022/04/15 02:15:49;;;;;;;5.13;4.25;;;;;;;10.43;91.75;96146.00;6367180;22;20055;-58
2022/04/15 02:18:15;;;;;;;5.20;4.30;;;;;;;10.45;92.29;96155.47;6366861;22;20379;-59
2022/04/15 02:20:40;;;;;;;9.68;3.80;;;;;;;10.50;90.93;96152.44;6366563;22;20089;-59
2022/04/15 02:23:06;;;;;;;4.32;3.88;;;;;;;10.52;90.47;96149.66;6366915;22;20003;-59
2022/04/15 02:25:31;;;;;;;4.65;3.97;;;;;;;10.54;90.29;96151.22;6366906;22;20006;-59
2022/04/15 02:27:56;;;;;;;8.80;4.15;;;;;;;10.58;90.76;96149.97;6367122;22;19998;-58
2022/04/15 02:30:22;;;;;;;4.80;4.40;;;;;;;10.54;91.07;96151.22;6366900;22;20014;-58
2022/04/15 02:32:47;;;;;;;6.68;4.03;;;;;;;10.55;91.27;96154.66;6366901;22;20030;-58
2022/04/15 02:35:12;;;;;;;9.38;4.90;;;;;;;10.56;91.49;96145.81;6367202;22;20439;-59
2022/04/15 02:37:38;;;;;;;5.03;3.97;;;;;;;10.52;92.48;96150.50;6369177;22;20037;-59
2022/04/15 02:40:06;;;;;;;5.72;4.65;;;;;;;10.52;92.03;96145.25;6369041;22;20441;-59
2022/04/15 02:42:32;;;;;;;5.53;4.63;;;;;;;10.52;91.83;96155.78;6368790;22;20298;-59
2022/04/15 02:44:58;;;;;;;6.78;4.40;;;;;;;10.53;92.60;96146.06;6369097;22;20078;-59
2022/04/15 02:47:24;;;;;;;4.22;3.85;;;;;;;10.54;92.14;96147.72;6369119;22;20022;-59
2022/04/15 02:49:50;;;;;;;4.15;3.72;;;;;;;10.59;91.39;96150.81;6368814;22;20097;-59
2022/04/15 02:52:16;;;;;;;5.07;4.30;;;;;;;10.62;91.81;96154.97;6368753;22;20342;-59
2022/04/15 02:54:41;;;;;;;4.68;3.80;;;;;;;10.66;92.00;96151.13;6368790;22;20014;-59
2022/04/15 02:57:07;;;;;;;5.70;4.30;;;;;;;10.72;91.28;96147.94;6369125;22;20007;-59
2022/04/15 02:59:32;;;;;;;6.53;4.45;;;;;;;10.79;91.57;96153.53;6368792;22;20013;-59
2022/04/15 03:01:58;;;;;;;4.85;4.32;;;;;;;10.79;91.95;96157.00;6368767;22;20073;-59
2022/04/15 03:04:23;;;;;;;9.70;5.20;;;;;;;10.82;92.00;96156.75;6368602;22;20014;-59
2022/04/15 03:06:49;;;;;;;10.52;6.28;;;;;;;10.85;91.96;96156.47;6368749;22;20002;-59
2022/04/15 03:09:14;;;;;;;7.28;5.32;;;;;;;10.91;92.21;96162.16;6368740;22;20029;-59
2022/04/15 03:11:40;;;;;;;5.78;4.88;;;;;;;10.96;91.69;96166.09;6340930;22;20022;-59
2022/04/15 03:14:06;;;;;;;7.65;5.13;;;;;;;11.01;91.02;96169.16;6368846;22;20319;-59
2022/04/15 03:16:32;;;;;;;5.75;4.97;;;;;;;11.07;90.57;96165.16;6368501;22;20022;-59
2022/04/15 03:18:57;;;;;;;4.43;3.97;;;;;;;11.11;90.43;96163.91;6368449;22;20347;-58
2022/04/15 03:21:22;;;;;;;5.07;4.35;;;;;;;11.10;90.49;96164.88;6368569;22;20016;-59
2022/04/15 03:23:48;;;;;;;8.10;4.20;;;;;;;11.10;91.49;96162.25;6368567;22;20431;-58
2022/04/15 03:26:13;;;;;;;6.50;4.00;;;;;;;11.09;90.71;96162.41;6368883;22;20405;-58
2022/04/15 03:28:39;;;;;;;5.10;4.05;;;;;;;11.06;90.90;96167.94;6368526;22;20069;-59
2022/04/15 03:31:05;;;;;;;5.40;3.78;;;;;;;11.03;90.49;96169.84;6368729;22;20055;-59
2022/04/15 03:33:31;;;;;;;7.47;4.45;;;;;;;10.99;90.60;96165.81;6368602;22;20010;-59
2022/04/15 03:35:56;;;;;;;4.65;4.25;;;;;;;10.87;92.38;96167.72;6368597;22;19998;-59
2022/04/15 03:38:22;;;;;;;5.90;4.10;;;;;;;10.85;92.04;96167.00;6368289;22;20042;-63
2022/04/15 03:40:47;;;;;;;6.70;4.38;;;;;;;10.83;92.31;96168.09;6368465;22;20025;-59
2022/04/15 03:43:12;;;;;;;8.25;4.45;;;;;;;10.83;92.25;96168.94;6368175;22;20514;-59
2022/04/15 03:45:38;;;;;;;7.18;4.65;;;;;;;10.86;91.89;96167.88;6368432;22;19999;-58
2022/04/15 03:48:04;;;;;;;9.25;4.40;;;;;;;10.82;91.83;96169.06;6368443;22;20005;-59
2022/04/15 03:50:29;;;;;;;8.02;4.32;;;;;;;10.80;91.75;96169.22;6368429;22;20194;-59
2022/04/15 03:52:54;;;;;;;7.63;4.43;;;;;;;10.79;92.11;96164.91;6367977;22;20010;-59
2022/04/15 03:55:22;;;;;;;6.25;4.82;;;;;;;10.79;91.91;96167.53;6368374;22;20469;-59
2022/04/15 03:57:48;;;;;;;3.85;3.53;;;;;;;10.71;92.88;96164.72;6368586;22;20029;-58
2022/04/15 04:00:19;;;;;;;8.80;4.32;;;;;;;10.66;92.71;96170.41;6368311;22;20002;-59
2022/04/15 04:02:47;;;;;;;7.93;4.40;;;;;;;10.57;92.73;96172.00;6368328;22;20024;-59
2022/04/15 04:05:15;;;;;;;4.60;4.10;;;;;;;10.49;93.41;96174.44;6368084;22;19998;-59
2022/04/15 04:07:42;;;;;;;3.92;3.63;;;;;;;10.44;92.96;96179.25;6368557;22;20089;-59
2022/04/15 04:10:08;;;;;;;6.95;4.28;;;;;;;10.37;93.14;96178.91;6368329;22;20006;-59
2022/04/15 04:12:34;;;;;;;4.55;4.15;;;;;;;10.33;93.30;96182.75;6368243;22;20034;-59
2022/04/15 04:15:05;;;;;;;4.22;3.92;;;;;;;10.27;93.46;96178.84;6367795;22;20085;-58
2022/04/15 04:17:30;;;;;;;4.60;4.20;;;;;;;10.21;94.14;96182.00;6368194;22;20003;-59
2022/04/15 04:19:56;;;;;;;5.82;4.30;;;;;;;10.15;94.44;96179.88;6367912;22;20009;-59
2022/04/15 04:22:29;;;;;;;11.80;3.83;;;;;;;10.03;95.45;96177.28;6367925;22;20009;-59
2022/04/15 04:24:55;;;;;;;8.15;4.60;;;;;;;9.98;95.97;96179.47;6368104;22;20034;-59
2022/04/15 04:27:20;;;;;;;9.23;5.15;;;;;;;10.01;95.27;96184.47;6367945;22;20427;-59
2022/04/15 04:29:46;;;;;;;5.80;4.35;;;;;;;9.98;95.01;96187.34;6367850;22;20099;-59
2022/04/15 04:32:11;;;;;;;4.95;4.50;;;;;;;9.89;95.29;96186.31;6367819;22;20052;-58
2022/04/15 04:34:36;;;;;;;7.47;4.60;;;;;;;9.84;95.27;96182.41;6367564;22;20006;-59
2022/04/15 04:37:02;;;;;;;6.07;4.43;;;;;;;9.78;95.81;96188.16;6368216;22;20338;-59
2022/04/15 04:39:29;;;;;;;4.88;3.90;;;;;;;9.76;95.52;96188.28;6367907;22;20002;-58
2022/04/15 04:41:56;;;;;;;6.60;4.60;;;;;;;9.72;96.16;96184.22;6367776;22;20006;-58
2022/04/15 04:44:21;;;;;;;8.55;4.32;;;;;;;9.69;95.85;96190.56;6367703;22;20013;-59
2022/04/15 04:46:47;;;;;;;7.18;4.50;;;;;;;9.71;95.23;96190.44;6367943;22;19999;-59
2022/04/15 04:49:13;;;;;;;5.22;4.72;;;;;;;9.68;95.14;96191.53;6367543;22;20477;-58
2022/04/15 04:51:39;;;;;;;4.95;4.45;;;;;;;9.62;95.58;96194.66;6367799;22;20033;-59
2022/04/15 04:54:04;;;;;;;5.70;5.10;;;;;;;9.62;95.63;96199.09;6367638;22;20065;-60
2022/04/15 04:56:29;;;;;;;7.03;4.03;;;;;;;9.57;94.78;96196.81;6368030;22;20002;-58
2022/04/15 04:58:55;;;;;;;5.03;4.53;;;;;;;9.54;95.21;96187.41;6339187;22;20030;-58
2022/04/15 05:01:20;;;;;;;4.57;4.20;;;;;;;9.51;95.26;96197.31;6367573;22;20334;-59
2022/04/15 05:03:46;;;;;;;8.57;4.30;;;;;;;9.46;95.15;96201.16;6367609;22;20006;-59
2022/04/15 05:06:11;;;;;;;4.75;4.22;;;;;;;9.44;94.95;96203.06;6367515;22;20037;-59
2022/04/15 05:08:36;;;;;;;10.00;4.80;;;;;;;9.41;94.73;96208.56;6367365;22;20071;-58
2022/04/15 05:11:02;;;;;;;5.28;4.75;;;;;;;9.40;94.63;96209.53;6367263;22;20012;-58
2022/04/15 05:13:27;;;;;;;6.03;4.63;;;;;;;9.42;94.69;96204.13;6367491;22;20036;-58
2022/04/15 05:15:52;;;;;;;4.53;4.13;;;;;;;9.45;94.55;96210.00;6339107;22;20396;-58
2022/04/15 05:18:18;;;;;;;4.68;4.20;;;;;;;9.43;94.57;96205.81;6367319;22;20038;-58
2022/04/15 05:20:43;;;;;;;4.35;3.92;;;;;;;9.41;94.80;96213.84;6367270;22;19998;-59
2022/04/15 05:23:09;;;;;;;5.75;4.78;;;;;;;9.44;94.69;96213.59;6367658;22;20343;-58
2022/04/15 05:25:34;;;;;;;9.75;6.40;;;;;;;9.46;94.58;96211.66;6367415;22;20009;-59
2022/04/15 05:27:59;;;;;;;8.43;6.32;;;;;;;9.47;95.03;96220.38;6367392;22;20006;-59
2022/04/15 05:30:25;;;;;;;10.05;7.15;;;;;;;9.52;94.28;96217.38;6367184;22;20029;-58
2022/04/15 05:32:51;;;;;;;10.70;6.47;;;;;;;9.58;94.00;96211.63;6367389;22;20006;-58
2022/04/15 05:35:16;;;;;;;7.40;5.65;;;;;;;9.65;93.84;96218.09;6366424;22;20006;-59
2022/04/15 05:37:42;;;;;;;7.18;6.10;;;;;;;9.66;93.89;96218.91;6365739;22;20007;-58
2022/04/15 05:40:08;;;;;;;7.78;6.57;;;;;;;9.70;94.06;96218.53;6365124;22;19999;-58
2022/04/15 05:42:33;;;;;;;10.25;5.38;;;;;;;9.71;94.20;96224.63;6364538;22;20010;-58
2022/04/15 05:44:58;;;;;;;9.02;5.28;;;;;;;9.77;93.97;96225.94;6338264;22;20343;-58
2022/04/15 05:47:24;;;;;;;7.22;5.75;;;;;;;9.83;93.84;96228.91;6365835;22;20002;-59
2022/04/15 05:49:49;;;;;;;7.53;6.35;;;;;;;9.92;93.44;96227.31;6364777;22;20105;-59
2022/04/15 05:52:15;;;;;;;7.07;5.88;;;;;;;9.98;93.58;96234.72;6365131;22;20010;-59
2022/04/15 05:54:40;;;;;;;6.40;4.82;;;;;;;10.05;93.38;96237.69;6365998;22;20028;-58
2022/04/15 05:57:05;;;;;;;6.97;4.85;;;;;;;10.12;92.88;96235.38;6366100;22;20465;-59
2022/04/15 05:59:31;;;;;;;7.53;4.88;;;;;;;10.18;92.92;96245.41;6365830;22;19998;-59
2022/04/15 06:01:56;;;;;;;8.77;5.00;;;;;;;10.24;92.54;96244.88;6366402;22;20005;-59
2022/04/15 06:04:22;;;;;;;6.38;5.80;;;;;;;10.32;93.00;96250.38;6365892;22;20438;-59
2022/04/15 06:06:47;;;;;;;5.93;5.20;;;;;;;10.39;91.86;96248.06;6364797;22;20002;-58
2022/04/15 06:09:13;;;;;;;16.15;5.45;;;;;;;10.49;92.18;96250.78;6364340;22;20025;-59
2022/04/15 06:11:41;;;;;;;6.75;5.25;;;;;;;10.56;92.17;96256.38;6337814;22;20002;-57
2022/04/15 06:14:07;;;;;;;6.18;5.00;;;;;;;10.62;91.88;96250.63;6365855;22;20013;-59
2022/04/15 06:16:33;;;;;;;10.32;4.60;;;;;;;10.71;90.62;96254.25;6365685;22;20057;-58
2022/04/15 06:18:59;;;;;;;10.93;4.32;;;;;;;10.81;89.85;96249.03;6366325;22;19998;-57
2022/04/15 06:21:25;;;;;;;10.40;5.22;;;;;;;10.90;89.52;96256.19;6365928;22;20021;-59
2022/04/15 06:23:50;;;;;;;10.07;4.60;;;;;;;11.00;88.75;96264.97;6365625;22;20114;-59
2022/04/15 06:26:16;;;;;;;6.78;5.47;;;;;;;11.17;88.35;96254.78;6365645;22;20420;-59
2022/04/15 06:28:41;;;;;;;16.55;6.10;;;;;;;11.39;87.50;96256.41;6363929;22;20010;-59
2022/04/15 06:31:07;;;;;;;11.60;5.40;;;;;;;11.87;85.99;96259.31;6364179;22;20126;-60
2022/04/15 06:33:32;;;;;;;7.00;4.90;;;;;;;12.18;84.42;96262.72;6363620;22;19999;-59
2022/04/15 06:36:00;;;;;;;10.05;4.75;;;;;;;12.42;83.28;96260.63;6363200;22;20559;-60
2022/04/15 06:38:26;;;;;;;9.82;4.43;;;;;;;12.65;82.15;96252.41;6363123;22;19998;-60
2022/04/15 06:40:51;;;;;;;8.27;3.70;;;;;;;12.98;80.03;96256.38;6365677;22;20457;-61
2022/04/15 06:43:17;;;;;;;3.67;3.38;;;;;;;13.40;78.77;96255.16;6365721;22;20029;-59
2022/04/15 06:45:42;;;;;;;11.30;3.63;;;;;;;14.04;74.70;96252.59;6366854;22;20065;-60
2022/04/15 06:48:08;;;;;;;6.72;4.30;;;;;;;14.58;73.71;96250.91;6366687;22;20002;-59
2022/04/15 06:50:33;;;;;;;10.25;4.20;;;;;;;15.06;70.80;96256.75;6365988;22;20018;-59
2022/04/15 06:52:58;;;;;;;4.82;3.50;;;;;;;15.35;69.60;96250.28;6365307;22;20018;-59
2022/04/15 06:55:24;;;;;;;3.88;3.30;;;;;;;15.62;67.44;96251.06;6365512;22;20041;-59
2022/04/15 06:57:49;;;;;;;5.45;3.42;;;;;;;15.89;65.66;96250.03;6365898;22;20013;-59
2022/04/15 07:00:15;;;;;;;3.85;3.15;;;;;;;15.87;65.83;96253.81;6363851;22;19999;-60
2022/04/15 07:02:41;;;;;;;4.85;3.10;;;;;;;16.16;65.75;96252.56;6364497;22;20033;-60
2022/04/15 07:05:09;;;;;;;7.50;3.00;;;;;;;16.50;63.79;96261.41;6363962;22;20039;-60
2022/04/15 07:07:35;;;;;;;3.45;3.15;;;;;;;16.70;63.29;96257.44;6363459;22;20025;-59
2022/04/15 07:10:01;;;;;;;13.52;3.60;;;;;;;16.17;63.96;96264.88;6364910;22;20427;-59
2022/04/15 07:12:26;;;;;;;10.68;2.72;;;;;;;16.51;63.59;96271.06;6364703;22;20002;-59
2022/04/15 07:14:52;;;;;;;7.65;2.70;;;;;;;16.95;61.41;96261.91;6363860;22;20052;-59
2022/04/15 07:17:17;;;;;;;5.35;2.88;;;;;;;17.43;61.10;96264.66;6363259;22;20081;-59
2022/04/15 07:19:43;;;;;;;5.90;2.88;;;;;;;17.81;61.00;96256.88;6364226;22;20003;-59
2022/04/15 07:22:08;;;;;;;2.80;2.22;;;;;;;18.17;58.53;96258.22;6365830;22;20026;-59
2022/04/15 07:24:33;;;;;;;5.07;3.30;;;;;;;18.20;57.89;96257.84;6367226;22;20013;-59
2022/04/15 07:26:59;;;;;;;8.20;2.70;;;;;;;18.46;56.76;96262.03;6367911;22;20434;-59
2022/04/15 07:29:26;;;;;;;2.95;2.58;;;;;;;18.35;56.95;96251.78;6367503;22;20458;-58
2022/04/15 07:31:52;;;;;;;3.80;2.38;;;;;;;18.77;54.78;96255.78;6367682;22;20342;-58
2022/04/15 07:34:17;;;;;;;3.97;2.30;;;;;;;18.97;54.32;96245.41;6339738;22;20003;-59
2022/04/15 07:36:44;;;;;;;4.55;2.63;;;;;;;18.90;54.59;96250.69;6368271;22;20737;-59
2022/04/15 07:39:11;;;;;;;3.92;2.63;;;;;;;18.98;54.27;96246.25;6368008;22;20006;-59
2022/04/15 07:41:38;;;;;;;5.18;2.80;;;;;;;19.18;54.00;96239.41;6367633;22;20417;-60
2022/04/15 07:44:04;;;;;;;4.68;2.67;;;;;;;19.14;52.66;96239.97;6367364;22;20013;-59
2022/04/15 07:46:30;;;;;;;4.60;2.67;;;;;;;19.59;52.08;96234.63;6367863;22;20476;-58
2022/04/15 07:48:56;;;;;;;8.07;2.72;;;;;;;19.50;51.96;96233.06;6367260;22;20061;-59
2022/04/15 07:51:21;;;;;;;5.25;2.33;;;;;;;19.36;52.23;96238.25;6365721;22;20014;-59
2022/04/15 07:53:46;;;;;;;4.18;2.58;;;;;;;19.45;54.09;96226.44;6365022;22;19999;-59
2022/04/15 07:56:12;;;;;;;5.07;2.88;;;;;;;19.98;51.81;96230.81;6367264;22;20005;-58
2022/04/15 07:58:37;;;;;;;5.43;3.25;;;;;;;20.12;50.08;96225.63;6366641;22;19998;-58
2022/04/15 08:01:02;;;;;;;4.60;2.95;;;;;;;19.91;50.93;96224.56;6367109;22;20007;-59
2022/04/15 08:03:28;;;;;;;8.30;3.03;;;;;;;19.79;51.15;96221.53;6365429;22;20006;-58
2022/04/15 08:05:54;;;;;;;6.63;2.28;;;;;;;19.67;50.73;96223.84;6367629;22;20002;-59
2022/04/15 08:08:19;;;;;;;5.50;2.78;;;;;;;20.24;48.64;96223.28;6367114;22;20157;-60
2022/04/15 08:10:45;;;;;;;3.58;2.70;;;;;;;20.21;48.77;96219.13;6367253;22;20052;-60
2022/04/15 08:13:10;;;;;;;8.10;2.78;;;;;;;20.30;49.72;96220.69;6365906;22;20012;-60
2022/04/15 08:15:36;;;;;;;4.05;2.17;;;;;;;20.30;51.46;96222.50;6366661;22;20009;-59
2022/04/15 08:18:01;;;;;;;5.70;2.50;;;;;;;20.30;49.32;96215.31;6366781;22;20026;-59
2022/04/15 08:20:27;;;;;;;9.68;2.92;;;;;;;20.53;49.38;96213.47;6367438;22;20009;-59
2022/04/15 08:22:52;;;;;;;9.10;3.05;;;;;;;20.31;48.94;96213.47;6367356;22;19998;-59
2022/04/15 08:25:18;;;;;;;3.95;2.60;;;;;;;20.72;48.43;96217.34;6366642;22;20053;-59
2022/04/15 08:27:43;;;;;;;2.75;2.55;;;;;;;21.33;47.60;96218.59;6366422;22;20010;-59
2022/04/15 08:30:09;;;;;;;6.25;2.58;;;;;;;20.76;48.17;96218.59;6366779;22;20037;-61
2022/04/15 08:32:35;;;;;;;4.30;2.88;;;;;;;21.44;49.37;96218.06;6366779;22;20423;-60
2022/04/15 08:35:05;;;;;;;3.42;2.58;;;;;;;21.38;47.56;96218.03;6366898;22;20006;-61
2022/04/15 08:37:31;;;;;;;5.63;3.00;;;;;;;21.48;47.21;96213.16;6367354;22;20006;-61
2022/04/15 08:39:57;;;;;;;5.15;3.00;;;;;;;21.69;47.45;96214.91;6366784;22;20348;-61
2022/04/15 08:42:22;;;;;;;7.13;3.00;;;;;;;22.20;46.50;96215.47;6367336;22;20006;-62
2022/04/15 08:44:51;;;;;;;5.00;2.72;;;;;;;22.48;45.81;96203.81;6367562;22;20014;-61
2022/04/15 08:47:18;;;;;;;5.90;2.88;;;;;;;22.73;43.44;96205.88;6366378;22;20005;-62
2022/04/15 08:49:43;;;;;;;6.53;2.70;;;;;;;22.68;44.35;96203.81;6366184;22;20022;-61
2022/04/15 08:52:10;;;;;;;5.25;2.60;;;;;;;23.17;41.90;96200.88;6367135;22;20087;-61
2022/04/15 08:54:36;;;;;;;4.20;2.53;;;;;;;23.20;40.50;96203.13;6365717;22;20077;-61
2022/04/15 08:57:02;;;;;;;5.45;2.65;;;;;;;23.01;41.53;96194.94;6366804;22;20002;-61
2022/04/15 08:59:27;;;;;;;3.25;2.13;;;;;;;23.38;39.80;96199.84;6338680;22;20034;-61
2022/04/15 09:01:52;;;;;;;3.65;2.38;;;;;;;23.49;39.95;96200.22;6367442;22;20013;-61
2022/04/15 09:04:19;;;;;;;6.05;2.60;;;;;;;23.34;40.53;96192.41;6367163;22;20013;-61
2022/04/15 09:06:44;;;;;;;3.30;2.47;;;;;;;23.77;40.04;96196.41;6367029;22;20006;-61
2022/04/15 09:09:14;;;;;;;4.72;2.80;;;;;;;23.74;40.73;96198.47;6367193;22;20497;-61
2022/04/15 09:11:41;;;;;;;4.05;2.75;;;;;;;23.88;39.51;96198.41;6366704;22;20310;-61
2022/04/15 09:14:14;;;;;;;3.88;2.63;;;;;;;24.19;39.07;96194.13;6367521;22;20007;-59
2022/04/15 09:16:40;;;;;;;5.50;2.55;;;;;;;24.53;38.57;96199.28;6367383;22;20055;-58
2022/04/15 09:19:07;;;;;;;6.00;3.25;;;;;;;24.53;39.10;96189.38;6366589;22;20087;-58
2022/04/15 09:21:33;;;;;;;3.75;2.65;;;;;;;24.87;37.58;96187.28;6366854;22;20010;-59
2022/04/15 09:23:58;;;;;;;4.47;2.65;;;;;;;24.62;37.29;96198.00;6367123;22;20033;-59
2022/04/15 09:26:25;;;;;;;6.88;2.60;;;;;;;24.78;37.62;96195.84;6365384;22;20075;-59
2022/04/15 09:28:53;;;;;;;4.38;2.58;;;;;;;24.37;38.03;96189.88;6365856;22;20010;-59
2022/04/15 09:31:21;;;;;;;6.45;2.72;;;;;;;24.56;38.24;96194.31;6364660;22;20327;-59
2022/04/15 09:33:54;;;;;;;7.30;2.90;;;;;;;25.46;36.22;96192.25;6366314;22;20003;-59
2022/04/15 09:36:37;;;;;;;12.55;2.60;;;;;;;25.70;34.52;96191.63;6365014;22;20002;-59
2022/04/15 09:39:10;;;;;;;3.25;2.53;;;;;;;25.66;35.79;96196.63;6366983;22;20338;-59
2022/04/15 09:41:36;;;;;;;6.68;2.50;;;;;;;25.47;33.69;96198.50;6367063;22;20134;-59
2022/04/15 09:44:02;;;;;;;3.95;2.30;;;;;;;25.23;34.59;96202.88;6338955;22;20071;-57
2022/04/15 09:46:29;;;;;;;4.00;2.55;;;;;;;25.39;35.37;96199.59;6365877;22;20006;-59
2022/04/15 09:48:57;;;;;;;3.30;2.55;;;;;;;25.53;33.90;96197.59;6367335;22;19998;-59
2022/04/15 09:51:23;;;;;;;3.10;2.40;;;;;;;25.32;35.27;96196.97;6364972;22;20025;-59
2022/04/15 09:53:51;;;;;;;4.38;2.60;;;;;;;25.97;34.36;96197.47;6366027;22;20003;-59
2022/04/15 09:56:20;;;;;;;6.85;2.78;;;;;;;25.34;34.59;96193.22;6366884;22;20013;-59
2022/04/15 09:58:48;;;;;;;5.03;2.38;;;;;;;25.65;35.58;96200.38;6367261;22;20077;-59
2022/04/15 10:01:14;;;;;;;4.72;3.15;;;;;;;25.77;34.46;96195.03;6366799;22;20073;-59
2022/04/15 10:03:45;;;;;;;6.95;2.60;;;;;;;26.02;32.61;96192.25;6367240;22;20074;-59
2022/04/15 10:06:12;;;;;;;10.63;2.60;;;;;;;26.28;33.12;96192.94;6367343;22;20456;-59
2022/04/15 10:08:39;;;;;;;5.70;2.95;;;;;;;26.20;32.34;96193.28;6366852;22;19998;-60
2022/04/15 10:11:09;;;;;;;8.68;2.72;;;;;;;24.95;36.00;96186.13;6366891;22;20086;-59
2022/04/15 10:13:35;;;;;;;5.93;2.70;;;;;;;26.19;34.17;96185.41;6367103;22;20012;-60
2022/04/15 10:16:01;;;;;;;5.53;2.78;;;;;;;25.97;34.05;96188.56;6366833;22;20014;-59
2022/04/15 10:18:27;;;;;;;5.05;2.42;;;;;;;25.29;34.44;96183.13;6366632;22;20063;-59
2022/04/15 10:20:53;;;;;;;5.10;2.78;;;;;;;26.21;33.76;96186.84;6366786;22;20058;-59
2022/04/15 10:23:21;;;;;;;5.22;2.47;;;;;;;26.60;33.47;96181.06;6366732;22;20030;-59
2022/04/15 10:25:49;;;;;;;4.75;2.25;;;;;;;26.51;32.36;96175.16;6366971;22;20069;-59
2022/04/15 10:28:23;;;;;;;5.53;2.33;;;;;;;26.62;32.15;96170.84;6366792;22;19994;-59
2022/04/15 10:31:11;;;;;;;4.03;2.35;;;;;;;27.15;32.82;96162.91;6367235;22;20006;-59
2022/04/15 10:33:39;;;;;;;5.45;2.72;;;;;;;27.21;32.26;96166.53;6366717;22;20009;-59
2022/04/15 10:36:17;;;;;;;5.22;2.35;;;;;;;27.05;33.27;96154.56;6367031;22;20006;-59
2022/04/15 10:39:08;;;;;;;5.63;2.45;;;;;;;26.83;32.03;96155.94;6366898;22;20397;-59
2022/04/15 10:41:43;;;;;;;2.72;2.15;;;;;;;27.16;32.74;96153.72;6365751;22;20017;-59
2022/04/15 10:44:23;;;;;;;3.70;2.33;;;;;;;27.17;31.70;96149.97;6366579;22;20002;-59
2022/04/15 10:46:48;;;;;;;7.72;2.67;;;;;;;27.79;30.60;96148.56;6366830;22;20458;-57
2022/04/15 10:49:26;;;;;;;3.30;2.22;;;;;;;27.62;31.19;96144.97;6366506;22;19998;-59
2022/04/15 10:52:16;;;;;;;6.95;2.50;;;;;;;28.01;31.82;96140.59;6366605;22;20073;-59
2022/04/15 10:54:48;;;;;;;7.03;2.45;;;;;;;28.09;30.34;96141.28;6344258;22;20006;-59
2022/04/15 10:57:19;;;;;;;5.47;2.15;;;;;;;27.70;30.94;96131.91;6368051;22;20003;-59
2022/04/15 11:02:48;;;;;;;5.78;2.53;;;;;;;28.25;30.14;96128.84;6368718;22;20037;-59
2022/04/15 11:05:31;;;;;;;4.68;2.47;;;;;;;27.82;30.63;96128.34;6368865;22;20034;-59
2022/04/15 11:08:11;;;;;;;5.03;2.50;;;;;;;27.95;31.43;96135.34;6368797;22;20005;-59
2022/04/15 11:10:42;;;;;;;8.05;2.47;;;;;;;28.12;30.77;96124.53;6368483;22;20461;-59
2022/04/15 11:13:23;;;;;;;7.63;2.55;;;;;;;27.26;30.68;96134.22;6368394;22;20048;-60
2022/04/15 11:16:04;;;;;;;3.03;2.28;;;;;;;26.96;30.78;96127.09;6368569;22;20083;-59
2022/04/15 11:18:51;;;;;;;4.20;2.40;;;;;;;26.88;31.87;96128.25;6368301;22;20043;-59
2022/04/15 11:21:18;;;;;;;8.48;2.70;;;;;;;27.58;32.82;96120.31;6368500;22;20018;-59
2022/04/15 11:23:52;;;;;;;3.13;2.00;;;;;;;28.57;30.72;96122.91;6368407;22;20071;-59
2022/04/15 11:26:19;;;;;;;5.03;2.05;;;;;;;28.36;30.25;96124.44;6368239;22;19999;-58
2022/04/15 11:28:46;;;;;;;6.00;2.30;;;;;;;27.92;31.74;96123.09;6369175;22;20343;-59
2022/04/15 11:31:23;;;;;;;2.40;2.15;;;;;;;28.47;29.69;96122.72;6368423;22;19998;-59
2022/04/15 11:33:49;;;;;;;4.03;2.60;;;;;;;27.59;31.58;96114.66;6368499;22;20410;-59
2022/04/15 11:36:15;;;;;;;6.05;3.33;;;;;;;27.10;31.95;96111.44;6368470;22;20066;-58